Time;durP1;ratioP1;P1;durP2;ratioP2;P2;SDS_P1;SDS_P2;PMS_P1;PMS_P2;Temp;Humidity;BMP_temperature;BMP_pressure;BME280_temperature;BME280_humidity;BME280_pressure;Samples;Min_cycle;Max_cycle;Signal;HPM_P1;HPM_P2
2023/03/09 00:01:21;;;;;;;;;0.33;0.33;;;;;11.96;100.00;98797.00;4914553;29;47207;-83
2023/03/09 00:03:47;;;;;;;;;1.00;1.00;;;;;11.89;100.00;98806.03;4914880;29;45400;-83
2023/03/09 00:06:13;;;;;;;;;0.00;0.00;;;;;11.88;100.00;98802.47;4917268;28;45262;-83
2023/03/09 00:08:38;;;;;;;;;2.00;1.00;;;;;11.89;100.00;98814.91;4912822;29;45528;-83
2023/03/09 00:11:07;;;;;;;;;1.00;1.00;;;;;11.93;100.00;98813.91;4911886;29;46685;-83
2023/03/09 00:13:33;;;;;;;;;0.67;0.67;;;;;11.82;100.00;98822.13;4915896;29;45455;-83
2023/03/09 00:16:14;;;;;;;;;1.00;0.33;;;;;11.87;100.00;98827.34;4915273;29;44819;-83
2023/03/09 00:18:40;;;;;;;;;1.00;1.00;;;;;11.81;100.00;98838.13;4912956;29;45425;-82
2023/03/09 00:21:06;;;;;;;;;1.00;1.00;;;;;11.75;100.00;98836.47;4913952;28;45616;-83
2023/03/09 00:23:32;;;;;;;;;0.33;0.33;;;;;11.73;100.00;98827.63;4913153;28;45468;-83
2023/03/09 00:26:05;;;;;;;;;1.00;1.00;;;;;11.81;100.00;98852.34;4914287;28;45497;-83
2023/03/09 00:31:52;;;;;;;;;2.00;2.00;;;;;11.65;100.00;98861.53;4914197;29;45290;-83
2023/03/09 00:34:18;;;;;;;;;0.67;0.67;;;;;11.63;100.00;98866.03;4911656;28;45331;-83
2023/03/09 00:36:44;;;;;;;;;0.67;0.67;;;;;11.60;100.00;98864.31;4912436;29;45353;-83
2023/03/09 00:39:12;;;;;;;;;0.00;0.00;;;;;11.61;100.00;98859.84;4913584;29;45429;-83
2023/03/09 00:41:38;;;;;;;;;1.00;1.00;;;;;11.53;100.00;98856.47;4912583;29;45462;-83
2023/03/09 00:44:04;;;;;;;;;1.67;1.00;;;;;11.55;100.00;98859.97;4913829;28;45399;-83
2023/03/09 00:46:31;;;;;;;;;1.00;1.00;;;;;11.53;100.00;98870.69;4928017;28;45489;-83
2023/03/09 00:48:57;;;;;;;;;2.00;2.00;;;;;11.47;100.00;98870.78;4913249;29;45767;-83
2023/03/09 00:51:23;;;;;;;;;1.00;1.00;;;;;11.50;100.00;98875.19;4912567;28;45430;-82
2023/03/09 00:53:49;;;;;;;;;1.00;1.00;;;;;11.49;100.00;98865.44;4913328;28;45401;-83
2023/03/09 00:56:19;;;;;;;;;3.67;1.00;;;;;11.53;100.00;98877.75;4913241;28;45764;-83
2023/03/09 00:58:44;;;;;;;;;1.00;1.00;;;;;11.48;100.00;98882.31;4913370;28;45421;-83
2023/03/09 01:01:12;;;;;;;;;1.00;1.00;;;;;11.44;100.00;98872.66;4913097;28;46001;-83
2023/03/09 01:03:41;;;;;;;;;0.33;0.33;;;;;11.41;100.00;98879.78;4912803;28;45634;-83
2023/03/09 01:06:08;;;;;;;;;1.00;0.67;;;;;11.38;100.00;98887.81;4913178;28;44829;-83
2023/03/09 01:08:35;;;;;;;;;1.00;1.00;;;;;11.42;100.00;98888.63;4911234;29;45483;-83
2023/03/09 01:11:05;;;;;;;;;1.00;1.00;;;;;11.50;100.00;98907.13;4914208;28;45870;-83
2023/03/09 01:13:31;;;;;;;;;1.67;1.67;;;;;11.43;100.00;98913.47;4914117;28;45541;-83
2023/03/09 01:15:56;;;;;;;;;1.33;1.00;;;;;11.36;100.00;98899.41;4913962;29;45354;-83
2023/03/09 01:18:22;;;;;;;;;1.00;1.00;;;;;11.39;100.00;98908.22;4913300;28;45437;-83
2023/03/09 01:20:47;;;;;;;;;2.00;2.00;;;;;11.35;100.00;98903.84;4926328;28;46969;-82
2023/03/09 01:23:13;;;;;;;;;0.00;0.00;;;;;11.36;100.00;98910.91;4913170;28;45591;-83
2023/03/09 01:25:38;;;;;;;;;1.67;1.00;;;;;11.36;100.00;98920.69;4913571;28;45343;-83
2023/03/09 01:28:04;;;;;;;;;2.00;1.00;;;;;11.36;100.00;98926.00;4913994;28;45563;-83
2023/03/09 01:30:29;;;;;;;;;0.67;0.67;;;;;11.31;100.00;98925.19;4912484;28;46053;-82
2023/03/09 01:32:55;;;;;;;;;0.00;0.00;;;;;11.37;100.00;98939.31;4912095;28;44756;-83
2023/03/09 01:35:21;;;;;;;;;1.00;1.00;;;;;11.36;100.00;98939.31;4913269;28;45454;-82
2023/03/09 01:37:46;;;;;;;;;2.00;0.00;;;;;11.35;100.00;98943.78;4897848;29;44801;-83
2023/03/09 01:40:24;;;;;;;;;3.00;0.00;;;;;11.45;100.00;98956.91;4913295;28;46801;-83
2023/03/09 01:42:58;;;;;;;;;2.00;2.00;;;;;11.42;100.00;98955.19;4911106;29;45758;-83
2023/03/09 01:45:29;;;;;;;;;2.33;1.33;;;;;11.45;100.00;98955.09;4896877;28;44896;-83
2023/03/09 01:48:00;;;;;;;;;0.67;0.67;;;;;11.41;100.00;98959.63;4911796;29;44806;-83
2023/03/09 01:50:30;;;;;;;;;0.00;0.00;;;;;11.44;100.00;98960.47;4895809;29;46678;-83
2023/03/09 01:53:00;;;;;;;;;2.33;2.00;;;;;11.39;100.00;98966.78;4912281;29;45284;-83
2023/03/09 01:55:31;;;;;;;;;1.67;1.00;;;;;11.47;100.00;98963.06;4914318;28;45374;-82
2023/03/09 01:58:12;;;;;;;;;2.00;1.33;;;;;11.50;100.00;98968.34;4914462;28;45455;-83
2023/03/09 02:00:41;;;;;;;;;0.00;0.00;;;;;11.51;100.00;98971.00;4914454;28;47063;-82
2023/03/09 02:03:15;;;;;;;;;4.00;1.00;;;;;11.50;100.00;98963.03;4913031;29;45400;-83
2023/03/09 02:05:48;;;;;;;;;1.67;1.00;;;;;11.56;100.00;98968.25;4911537;28;45457;-83
2023/03/09 02:08:14;;;;;;;;;1.00;1.00;;;;;11.43;100.00;98958.72;4912031;29;45535;-83
2023/03/09 02:10:53;;;;;;;;;2.00;2.00;;;;;11.56;100.00;98957.59;4909549;29;47359;-83
2023/03/09 02:13:21;;;;;;;;;2.67;2.00;;;;;11.61;100.00;98963.69;4910460;28;45335;-83
2023/03/09 02:15:48;;;;;;;;;3.00;2.33;;;;;11.59;100.00;98968.16;4911650;28;45577;-83
2023/03/09 02:18:13;;;;;;;;;2.67;2.67;;;;;11.69;100.00;98979.53;4911958;29;45379;-83
2023/03/09 02:20:58;;;;;;;;;1.00;1.00;;;;;11.84;100.00;98960.59;4915816;28;45428;-83
2023/03/09 02:23:47;;;;;;;;;3.00;1.33;;;;;11.81;100.00;98952.66;4917038;29;45380;-84
2023/03/09 02:26:13;;;;;;;;;2.33;1.00;;;;;11.79;100.00;98984.63;4914870;29;45691;-83
2023/03/09 02:28:38;;;;;;;;;3.00;1.67;;;;;11.84;100.00;98984.56;4913576;28;44860;-83
2023/03/09 02:31:26;;;;;;;;;3.00;2.33;;;;;12.00;100.00;98987.84;4915023;29;45422;-84
2023/03/09 02:33:51;;;;;;;;;1.67;1.00;;;;;11.93;100.00;98988.88;4913642;29;45421;-84
2023/03/09 02:36:17;;;;;;;;;1.00;1.00;;;;;11.94;100.00;98993.31;4916398;28;44879;-84
2023/03/09 02:38:45;;;;;;;;;2.00;1.00;;;;;12.05;100.00;99004.59;4915929;29;45485;-83
2023/03/09 02:41:12;;;;;;;;;1.67;1.67;;;;;12.05;100.00;98987.75;4900698;29;47311;-83
2023/03/09 02:43:49;;;;;;;;;2.33;1.33;;;;;12.08;100.00;98991.25;4904173;28;45424;-83
2023/03/09 02:46:15;;;;;;;;;0.67;0.67;;;;;12.05;100.00;98999.28;4955435;28;45395;-83
2023/03/09 02:48:41;;;;;;;;;2.67;1.00;;;;;11.95;100.00;98992.38;4939105;28;45444;-83
2023/03/09 02:51:07;;;;;;;;;1.33;1.33;;;;;11.97;100.00;99001.22;4936569;28;46791;-84
2023/03/09 02:53:33;;;;;;;;;4.33;1.00;;;;;11.99;100.00;99010.06;4935748;28;44880;-84
2023/03/09 02:55:58;;;;;;;;;3.67;2.67;;;;;12.00;100.00;98998.50;4954522;28;45333;-83
2023/03/09 02:58:23;;;;;;;;;2.00;2.00;;;;;11.99;100.00;99000.28;4953953;28;45481;-83
2023/03/09 03:00:49;;;;;;;;;4.33;3.00;;;;;12.04;100.00;99000.22;4937865;28;46816;-84
2023/03/09 03:03:18;;;;;;;;;5.00;2.00;;;;;12.05;100.00;98999.28;4955735;28;45475;-83
2023/03/09 03:05:44;;;;;;;;;4.00;1.00;;;;;12.04;100.00;99005.53;4955888;28;45414;-84
2023/03/09 03:08:09;;;;;;;;;0.67;0.67;;;;;12.07;100.00;99012.59;4953285;28;45382;-84
2023/03/09 03:10:35;;;;;;;;;3.33;2.67;;;;;12.11;100.00;99016.94;4952815;28;45309;-83
2023/03/09 03:13:01;;;;;;;;;2.67;2.00;;;;;12.12;100.00;99024.91;4953848;28;45215;-83
2023/03/09 03:15:26;;;;;;;;;5.33;3.67;;;;;12.12;100.00;99016.91;4955363;28;45479;-84
2023/03/09 03:17:52;;;;;;;;;4.67;3.00;;;;;12.18;100.00;99021.25;4936745;28;44823;-82
2023/03/09 03:20:18;;;;;;;;;3.67;2.00;;;;;12.16;100.00;99015.94;4955003;28;45526;-82
2023/03/09 03:22:43;;;;;;;;;4.67;4.00;;;;;12.17;100.00;99023.00;4939537;28;44832;-82
2023/03/09 03:25:10;;;;;;;;;2.33;2.00;;;;;12.15;100.00;99023.97;4955237;28;45267;-82
2023/03/09 03:27:35;;;;;;;;;4.00;3.00;;;;;12.13;100.00;99029.31;4938663;28;45403;-82
2023/03/09 03:30:03;;;;;;;;;8.00;3.00;;;;;12.13;100.00;99033.78;4956021;28;45431;-81
2023/03/09 03:32:30;;;;;;;;;6.67;3.00;;;;;12.13;100.00;99034.66;4937896;28;45410;-81
2023/03/09 03:34:55;;;;;;;;;4.33;2.67;;;;;12.07;100.00;99036.56;4954304;28;45540;-82
2023/03/09 03:37:21;;;;;;;;;1.67;1.67;;;;;12.02;100.00;99042.00;4936118;28;45249;-82
2023/03/09 03:39:50;;;;;;;;;2.00;2.00;;;;;12.04;100.00;99044.59;4953336;28;45659;-82
2023/03/09 03:42:15;;;;;;;;;2.33;2.33;;;;;11.88;100.00;99044.88;4937087;28;45574;-82
2023/03/09 03:44:41;;;;;;;;;1.00;1.00;;;;;11.85;100.00;99049.38;4925168;28;45816;-82
2023/03/09 03:47:13;;;;;;;;;2.33;2.33;;;;;11.82;100.00;99039.66;4916746;28;45406;-82
2023/03/09 03:49:38;;;;;;;;;4.67;3.00;;;;;11.90;100.00;99042.22;4914383;29;45428;-83
2023/03/09 03:52:05;;;;;;;;;3.33;2.67;;;;;11.95;100.00;99035.00;4912607;28;45778;-83
2023/03/09 03:54:30;;;;;;;;;2.00;2.00;;;;;11.95;100.00;99053.66;4914375;28;45532;-82
2023/03/09 03:56:56;;;;;;;;;2.25;1.75;;;;;11.94;100.00;99059.91;4913949;29;45445;-82
2023/03/09 03:59:21;;;;;;;;;4.50;3.25;;;;;11.96;100.00;99060.75;4914179;28;45466;-83
2023/03/09 04:01:47;;;;;;;;;2.00;2.00;;;;;12.05;100.00;99063.22;4914796;28;44802;-83
2023/03/09 04:04:13;;;;;;;;;1.00;1.00;;;;;12.05;100.00;99065.03;4912760;29;45435;-83
2023/03/09 04:06:39;;;;;;;;;3.00;1.50;;;;;12.09;100.00;99070.25;4913700;28;45437;-83
2023/03/09 04:09:04;;;;;;;;;3.00;1.00;;;;;12.09;100.00;99080.91;4914440;28;45632;-83
2023/03/09 04:11:30;;;;;;;;;3.00;2.00;;;;;12.05;100.00;99073.88;4914794;29;45363;-83
2023/03/09 04:13:55;;;;;;;;;4.00;1.67;;;;;12.05;100.00;99087.22;4914772;29;44736;-83
2023/03/09 04:16:21;;;;;;;;;5.00;4.00;;;;;12.03;100.00;99086.38;4896469;29;45263;-82
2023/03/09 04:18:46;;;;;;;;;1.00;1.00;;;;;12.05;100.00;99084.53;4910746;29;47314;-82
2023/03/09 04:21:12;;;;;;;;;3.33;2.33;;;;;12.09;100.00;99093.38;4910169;29;45361;-83
2023/03/09 04:23:37;;;;;;;;;2.33;2.00;;;;;12.12;100.00;99091.53;4911258;28;45850;-83
2023/03/09 04:26:05;;;;;;;;;4.67;3.67;;;;;12.18;100.00;99090.53;4911754;28;44836;-83
2023/03/09 04:28:30;;;;;;;;;8.67;4.00;;;;;12.16;100.00;99087.91;4911546;28;47215;-83
2023/03/09 04:30:56;;;;;;;;;4.67;3.00;;;;;12.26;100.00;99093.03;4913417;29;45553;-82
2023/03/09 04:33:22;;;;;;;;;2.67;1.67;;;;;12.28;100.00;99097.47;4912690;28;45413;-83
2023/03/09 04:35:47;;;;;;;;;2.00;2.00;;;;;12.22;100.00;99086.91;4896399;29;45526;-83
2023/03/09 04:38:14;;;;;;;;;5.33;5.00;;;;;12.26;100.00;99093.94;4914922;28;45407;-83
2023/03/09 04:40:40;;;;;;;;;8.00;3.00;;;;;12.21;100.00;99106.47;4911852;29;44847;-82
2023/03/09 04:43:06;;;;;;;;;3.25;3.25;;;;;12.25;100.00;99112.63;4914010;29;45372;-82
2023/03/09 04:45:34;;;;;;;;;2.00;1.00;;;;;12.27;100.00;99116.13;4944042;28;44782;-82
2023/03/09 04:48:00;;;;;;;;;4.00;3.00;;;;;12.30;100.00;99116.06;4953583;28;45562;-83
2023/03/09 04:50:26;;;;;;;;;3.67;1.00;;;;;12.31;100.00;99115.16;4952587;28;44811;-83
2023/03/09 04:52:52;;;;;;;;;3.00;3.00;;;;;12.20;100.00;99116.25;4950468;28;45319;-83
2023/03/09 04:55:17;;;;;;;;;3.00;1.50;;;;;12.17;100.00;99128.75;4934443;28;44902;-83
2023/03/09 04:57:43;;;;;;;;;2.67;1.00;;;;;12.19;100.00;99122.47;4934472;28;46874;-83
2023/03/09 05:00:11;;;;;;;;;4.67;4.67;;;;;12.30;100.00;99126.72;4934156;28;45357;-83
2023/03/09 05:02:38;;;;;;;;;3.00;3.00;;;;;12.33;100.00;99130.22;4950514;28;45436;-82
2023/03/09 05:05:04;;;;;;;;;1.67;1.67;;;;;12.33;100.00;99118.69;4950161;28;45838;-82
2023/03/09 05:07:29;;;;;;;;;1.33;1.33;;;;;12.28;100.00;99109.88;4951842;28;45183;-82
2023/03/09 05:09:56;;;;;;;;;5.00;3.00;;;;;12.41;100.00;99127.41;4952201;28;44801;-82
2023/03/09 05:12:21;;;;;;;;;1.00;1.00;;;;;12.36;100.00;99132.84;4953825;28;45293;-83
2023/03/09 05:14:47;;;;;;;;;3.75;2.75;;;;;12.36;100.00;99135.50;4953917;28;44874;-83
2023/03/09 05:17:12;;;;;;;;;3.00;2.00;;;;;12.23;100.00;99123.31;4952771;28;45314;-82
2023/03/09 05:19:38;;;;;;;;;2.67;1.33;;;;;12.23;100.00;99119.75;4937174;28;45334;-82
2023/03/09 05:22:05;;;;;;;;;2.00;2.00;;;;;12.26;100.00;99130.34;4953491;28;45171;-83
2023/03/09 05:24:30;;;;;;;;;3.00;2.00;;;;;12.19;100.00;99129.59;4936308;28;45334;-82
2023/03/09 05:26:56;;;;;;;;;1.00;1.00;;;;;12.18;100.00;99139.38;4954987;28;45369;-82
2023/03/09 05:29:21;;;;;;;;;4.00;3.00;;;;;12.15;100.00;99136.75;4954451;28;44750;-82
2023/03/09 05:31:47;;;;;;;;;3.33;3.33;;;;;12.14;100.00;99142.13;4936548;28;45526;-83
2023/03/09 05:34:57;;;;;;;;;4.00;2.67;;;;;12.18;100.00;99134.06;4952855;28;45389;-82
2023/03/09 05:37:22;;;;;;;;;3.67;2.67;;;;;12.00;100.00;99137.06;4937091;28;47681;-82
2023/03/09 05:39:48;;;;;;;;;3.00;2.67;;;;;11.95;100.00;99130.91;4954065;28;45216;-82
2023/03/09 05:42:13;;;;;;;;;1.00;1.00;;;;;12.00;100.00;99145.06;4935234;28;45427;-83
2023/03/09 05:44:39;;;;;;;;;1.67;1.67;;;;;11.99;100.00;99140.59;4924425;28;44876;-83
2023/03/09 05:47:06;;;;;;;;;0.50;0.50;;;;;12.09;100.00;99142.22;4914011;28;45443;-83
2023/03/09 05:49:31;;;;;;;;;3.33;3.33;;;;;12.04;100.00;99136.09;4911443;29;44733;-82
2023/03/09 05:51:58;;;;;;;;;1.75;1.75;;;;;11.98;100.00;99136.19;4912322;29;44987;-82
2023/03/09 05:54:24;;;;;;;;;6.00;1.33;;;;;12.04;100.00;99143.19;4894720;29;45442;-83
2023/03/09 05:56:54;;;;;;;;;2.00;1.33;;;;;12.09;100.00;99152.00;4914292;29;46851;-83
2023/03/09 05:59:19;;;;;;;;;5.00;1.67;;;;;12.02;100.00;99153.91;4900362;29;45353;-83
2023/03/09 06:05:08;;;;;;;;;2.00;2.00;;;;;12.07;100.00;99159.13;4902426;29;45701;-83
2023/03/09 06:07:34;;;;;;;;;3.00;2.67;;;;;11.98;100.00;99162.84;4915530;28;47939;-83
2023/03/09 06:09:59;;;;;;;;;3.00;2.00;;;;;11.93;100.00;99165.56;4899928;29;45336;-83
2023/03/09 06:12:26;;;;;;;;;3.67;3.67;;;;;11.92;100.00;99162.94;4899173;28;45336;-83
2023/03/09 06:14:53;;;;;;;;;1.00;1.00;;;;;11.92;100.00;99170.94;4915298;29;45513;-83
2023/03/09 06:17:19;;;;;;;;;2.00;2.00;;;;;11.89;100.00;99168.31;4912929;29;47613;-83
2023/03/09 06:19:45;;;;;;;;;6.00;6.00;;;;;11.86;100.00;99181.66;4901892;29;45466;-83
2023/03/09 06:22:10;;;;;;;;;3.00;2.00;;;;;11.85;100.00;99177.22;4902134;29;44885;-83
2023/03/09 06:24:36;;;;;;;;;4.67;3.67;;;;;11.86;100.00;99184.34;4902682;29;45452;-83
2023/03/09 06:27:03;;;;;;;;;7.00;4.67;;;;;11.93;100.00;99194.00;4900690;29;47131;-83
2023/03/09 06:29:29;;;;;;;;;1.00;1.00;;;;;11.85;100.00;99183.44;4901094;29;45486;-83
2023/03/09 06:31:55;;;;;;;;;0.75;0.75;;;;;11.88;100.00;99194.06;4899353;29;45467;-83
2023/03/09 06:34:20;;;;;;;;;3.67;1.67;;;;;11.90;100.00;99191.41;4904122;28;45634;-83
2023/03/09 06:36:46;;;;;;;;;3.00;2.33;;;;;11.87;100.00;99181.63;4919971;28;47270;-83
2023/03/09 06:39:13;;;;;;;;;4.00;3.00;;;;;11.96;100.00;99207.28;4918511;28;45505;-83
2023/03/09 06:41:39;;;;;;;;;4.67;2.00;;;;;11.95;100.00;99203.72;4919394;28;45357;-83
2023/03/09 06:44:04;;;;;;;;;4.00;1.33;;;;;11.97;100.00;99217.91;4935884;28;45485;-83
2023/03/09 06:46:30;;;;;;;;;0.67;0.00;;;;;11.98;100.00;99213.47;4958150;28;46095;-83
2023/03/09 06:49:02;;;;;;;;;1.33;1.33;;;;;12.11;100.00;99215.00;4945171;28;44965;-84
2023/03/09 06:51:28;;;;;;;;;4.00;3.33;;;;;12.11;100.00;99216.81;4941666;28;44817;-83
2023/03/09 06:53:53;;;;;;;;;4.00;2.67;;;;;12.16;100.00;99226.50;4958380;28;44870;-83
2023/03/09 06:56:19;;;;;;;;;2.33;2.33;;;;;12.22;100.00;99220.19;4957473;28;47025;-82
2023/03/09 06:58:49;;;;;;;;;3.00;2.00;;;;;12.23;100.00;99223.72;4939642;28;45357;-83
2023/03/09 07:01:17;;;;;;;;;5.00;4.33;;;;;12.33;100.00;99222.66;4959699;28;45684;-83
2023/03/09 07:03:43;;;;;;;;;3.33;3.33;;;;;12.38;100.00;99242.09;4955346;28;45360;-82
2023/03/09 07:06:10;;;;;;;;;2.50;1.50;;;;;12.44;100.00;99239.31;4935767;28;47048;-84
2023/03/09 07:08:35;;;;;;;;;5.33;4.00;;;;;12.44;100.00;99233.09;4954874;28;45476;-84
2023/03/09 07:11:03;;;;;;;;;2.67;2.67;;;;;12.40;100.00;99221.63;4935372;28;45543;-82
2023/03/09 07:13:32;;;;;;;;;3.67;2.00;;;;;12.57;100.00;99246.19;4951525;28;45362;-84
2023/03/09 07:16:11;;;;;;;;;1.50;0.00;;;;;12.66;100.00;99252.28;4936639;28;46878;-84
2023/03/09 07:18:36;;;;;;;;;2.00;2.00;;;;;12.66;100.00;99241.59;4923174;28;45451;-84
2023/03/09 07:21:03;;;;;;;;;5.00;5.00;;;;;12.83;100.00;99241.31;4937000;28;45337;-84
2023/03/09 07:23:31;;;;;;;;;3.00;3.00;;;;;12.82;100.00;99237.72;4939088;28;44981;-83
2023/03/09 07:26:02;;;;;;;;;5.25;3.00;;;;;12.83;100.00;99239.50;4917240;28;47639;-84
2023/03/09 07:28:28;;;;;;;;;3.67;3.67;;;;;12.87;100.00;99249.22;4932402;28;44737;-84
2023/03/09 07:30:55;;;;;;;;;8.67;3.33;;;;;12.88;100.00;99237.63;4934729;28;45299;-84
2023/03/09 07:33:23;;;;;;;;;4.33;4.00;;;;;12.78;100.00;99244.91;4916825;28;45499;-82
2023/03/09 07:35:52;;;;;;;;;5.67;5.00;;;;;12.90;100.00;99262.47;4919225;28;47368;-83
2023/03/09 07:38:18;;;;;;;;;6.33;5.67;;;;;12.79;100.00;99259.16;4933325;28;45942;-83
2023/03/09 07:40:43;;;;;;;;;5.00;4.00;;;;;12.77;100.00;99251.16;4933222;28;45662;-82
2023/03/09 07:43:12;;;;;;;;;8.67;5.00;;;;;12.90;100.00;99273.16;4952644;28;45421;-84
2023/03/09 07:45:46;;;;;;;;;6.00;6.00;;;;;12.88;100.00;99271.44;4951966;28;45527;-83
2023/03/09 07:48:11;;;;;;;;;5.67;5.33;;;;;12.81;100.00;99260.00;4947467;28;44763;-83
2023/03/09 07:50:40;;;;;;;;;5.33;4.00;;;;;12.85;100.00;99275.03;4936811;28;45450;-84
2023/03/09 07:53:05;;;;;;;;;3.67;3.67;;;;;12.90;100.00;99273.16;4941020;28;45550;-85
2023/03/09 07:55:36;;;;;;;;;9.75;5.75;;;;;13.11;100.00;99285.22;4937857;28;47338;-83
2023/03/09 07:58:03;;;;;;;;;6.25;4.50;;;;;13.14;100.00;99276.25;4939558;28;45318;-83
2023/03/09 08:00:32;;;;;;;;;4.00;2.25;;;;;13.25;100.00;99284.94;4930850;28;45535;-81
2023/03/09 08:03:00;;;;;;;;;7.00;4.00;;;;;13.24;100.00;99285.84;4934446;28;45599;-83
2023/03/09 08:05:31;;;;;;;;;7.25;4.00;;;;;13.42;100.00;99289.09;4937053;28;47298;-83
2023/03/09 08:07:57;;;;;;;;;6.50;4.50;;;;;13.45;100.00;99292.56;4938246;28;44717;-84
2023/03/09 08:10:29;;;;;;;;;8.67;7.00;;;;;13.50;100.00;99268.44;4940395;28;45415;-83
2023/03/09 08:16:30;;;;;;;;;8.33;5.33;;;;;13.73;100.00;99284.81;4956117;28;44912;-82
2023/03/09 08:18:55;;;;;;;;;10.67;5.67;;;;;13.58;100.00;99282.50;4918204;28;45416;-82
2023/03/09 08:21:21;;;;;;;;;6.67;3.67;;;;;13.71;100.00;99294.66;4944610;28;44767;-82
2023/03/09 08:23:51;;;;;;;;;6.00;3.67;;;;;13.85;100.00;99296.16;4959218;28;45323;-83
2023/03/09 08:26:18;;;;;;;;;4.00;4.00;;;;;13.87;100.00;99287.19;4940418;28;47156;-83
2023/03/09 08:41:50;;;;;;;;;4.33;4.00;;;;;14.46;100.00;99309.88;5077509;23;46449;-83
2023/03/09 08:47:46;;;;;;;;;4.33;4.33;;;;;14.28;100.00;99285.34;4934433;28;45216;-87
2023/03/09 08:50:31;;;;;;;;;;;;;;;;;;;;;
2023/03/09 08:53:18;;;;;;;;;13.67;5.67;;;;;14.60;100.00;99303.31;4944247;28;69384;-84
2023/03/09 08:56:29;;;;;;;;;5.67;5.67;;;;;14.72;100.00;99311.94;4965295;28;44791;-84
2023/03/09 09:27:35;;;;;;;;;9.33;6.33;;;;;15.18;100.00;99305.34;3996043;26;46157;-83
2023/03/09 09:30:41;;;;;;;;;;;;;;;;;;;;;
2023/03/09 09:33:13;;;;;;;;;7.67;7.33;;;;;15.46;100.00;99283.13;4950688;28;72204;-84
2023/03/09 09:35:39;;;;;;;;;9.33;6.67;;;;;15.47;100.00;99266.13;4939507;28;44775;-84
2023/03/09 09:38:06;;;;;;;;;9.00;5.00;;;;;15.75;100.00;99284.97;4926816;28;45455;-83
2023/03/09 09:41:11;;;;;;;;;12.00;6.67;;;;;15.91;100.00;99296.09;4959161;28;45218;-83
2023/03/09 09:43:47;;;;;;;;;8.00;5.67;;;;;15.88;100.00;99297.09;4952883;28;44914;-82
2023/03/09 09:46:19;;;;;;;;;13.33;8.00;;;;;15.95;100.00;99287.03;4938042;28;45390;-81
2023/03/09 09:48:51;;;;;;;;;8.67;3.67;;;;;16.09;100.00;99298.19;4936957;28;45129;-82
2023/03/09 09:51:48;;;;;;;;;3.33;3.33;;;;;16.14;100.00;99304.31;4943797;28;45392;-82
2023/03/09 10:01:15;;;;;;;;;6.33;5.00;;;;;16.16;100.00;99288.19;5077202;23;45002;-83
2023/03/09 10:03:52;;;;;;;;;10.33;7.67;;;;;16.06;100.00;99263.44;4943500;28;47831;-83
2023/03/09 10:06:36;;;;;;;;;12.00;10.00;;;;;16.20;100.00;99279.09;4928681;28;44983;-82
2023/03/09 10:09:19;;;;;;;;;9.67;8.00;;;;;16.28;100.00;99289.56;4953173;28;45491;-85
2023/03/09 10:15:40;;;;;;;;;9.67;6.00;;;;;16.36;100.00;99290.19;4949276;28;45027;-83
2023/03/09 10:18:22;;;;;;;;;13.00;7.33;;;;;16.34;100.00;99265.22;4933205;28;44963;-83
2023/03/09 10:21:39;;;;;;;;;;;;;;;;;;;;;
2023/03/09 10:24:30;;;;;;;;;9.00;7.00;;;;;16.66;100.00;99284.72;4868636;29;65002;-84
2023/03/09 10:27:26;;;;;;;;;6.33;5.00;;;;;16.53;100.00;99260.13;4912225;29;45385;-83
2023/03/09 10:30:16;;;;;;;;;9.33;4.67;;;;;16.89;100.00;99292.91;4897202;29;45612;-83
2023/03/09 10:32:54;;;;;;;;;7.75;4.25;;;;;16.78;100.00;99263.72;4896271;29;45364;-83
2023/03/09 10:35:40;;;;;;;;;7.67;7.00;;;;;17.00;100.00;99274.59;4900270;28;44873;-83
2023/03/09 10:41:02;;;;;;;;;7.67;6.33;;;;;17.10;100.00;99271.59;5144723;23;45047;-82
2023/03/09 10:43:34;;;;;;;;;6.33;5.33;;;;;17.03;100.00;99267.34;4950760;28;45451;-83
2023/03/09 10:46:20;;;;;;;;;7.00;4.00;;;;;16.91;100.00;99266.88;4973914;28;45499;-83
2023/03/09 10:48:47;;;;;;;;;16.33;14.00;;;;;16.68;100.00;99266.75;4975603;28;46881;-83
2023/03/09 10:52:17;;;;;;;;;19.67;18.33;;;;;16.68;100.00;99277.50;4977316;28;44873;-84
2023/03/09 10:54:46;;;;;;;;;4.00;4.00;;;;;16.57;100.00;99268.00;4916099;28;45359;-84
2023/03/09 10:57:50;;;;;;;;;8.33;5.00;;;;;16.39;100.00;99247.16;4939895;28;45343;-86
2023/03/09 11:01:02;;;;;;;;;5.33;5.33;;;;;16.57;100.00;99254.59;4967867;28;45610;-83
2023/03/09 11:03:38;;;;;;;;;11.67;11.00;;;;;16.68;100.00;99239.91;4918943;28;45714;-84
2023/03/09 11:06:45;;;;;;;;;20.00;18.67;;;;;17.03;100.00;99256.59;4917121;29;45383;-84
2023/03/09 11:09:40;;;;;;;;;;;;;;;;;;;;;
2023/03/09 11:15:18;;;;;;;;;19.00;19.00;;;;;17.77;100.00;99244.84;3183569;26;46192;-84
2023/03/09 11:17:53;;;;;;;;;5.33;5.00;;;;;17.83;100.00;99250.91;4955331;28;45414;-85
2023/03/09 11:20:50;;;;;;;;;12.33;7.00;;;;;17.92;100.00;99251.47;4958859;28;45458;-86
2023/03/09 11:23:48;;;;;;;;;9.50;9.00;;;;;18.02;100.00;99262.72;4976444;28;45752;-84
2023/03/09 11:26:57;;;;;;;;;13.75;9.00;;;;;17.78;100.00;99214.31;4971561;28;45504;-83
2023/03/09 11:30:11;;;;;;;;;8.00;6.75;;;;;17.98;100.00;99250.34;4967366;23;46552;-83
2023/03/09 11:32:40;;;;;;;;;3.00;3.00;;;;;17.71;100.00;99217.31;4935766;28;45589;-84
2023/03/09 11:35:29;;;;;;;;;7.50;6.00;;;;;18.04;100.00;99249.19;4958064;28;46412;-83
2023/03/09 11:38:03;;;;;;;;;8.00;6.00;;;;;18.09;100.00;99217.63;4958947;28;45397;-83
2023/03/09 11:40:38;;;;;;;;;8.50;5.75;;;;;18.29;100.00;99236.50;4959393;28;45380;-83
2023/03/09 11:43:13;;;;;;;;;5.50;5.00;;;;;18.34;100.00;99229.13;4961739;28;45147;-83
2023/03/09 11:45:43;;;;;;;;;6.50;6.50;;;;;18.42;100.00;99244.06;4962833;28;45213;-82
2023/03/09 11:48:50;;;;;;;;;5.50;3.50;;;;;18.46;100.00;99230.44;4955841;28;45431;-83
2023/03/09 11:51:39;;;;;;;;;8.00;3.75;;;;;18.37;100.00;99222.72;4931634;28;45501;-83
2023/03/09 11:54:45;;;;;;;;;9.25;7.25;;;;;18.41;100.00;99216.28;4976661;28;45461;-84
2023/03/09 11:57:18;;;;;;;;;10.00;9.75;;;;;18.36;100.00;99212.88;5165630;23;46978;-82
2023/03/09 12:00:05;;;;;;;;;3.75;3.75;;;;;18.41;100.00;99212.72;4951942;28;44922;-83
2023/03/09 12:03:28;;;;;;;;;6.50;6.00;;;;;18.33;100.00;99218.41;4938745;28;44896;-84
2023/03/09 12:06:05;;;;;;;;;4.75;4.50;;;;;18.43;100.00;99217.09;4943351;28;44787;-84
2023/03/09 12:11:51;;;;;;;;;7.75;5.25;;;;;18.42;100.00;99191.13;4928904;28;45001;-81
2023/03/09 12:14:47;;;;;;;;;6.25;5.00;;;;;18.49;100.00;99200.66;4955581;28;45097;-85
2023/03/09 12:17:29;;;;;;;;;5.25;4.00;;;;;18.53;100.00;99183.44;4968279;28;45513;-81
2023/03/09 12:20:02;;;;;;;;;6.50;5.25;;;;;18.58;100.00;99189.50;4951419;28;45679;-84
2023/03/09 12:22:39;;;;;;;;;3.25;3.25;;;;;18.55;100.00;99173.47;4953315;28;46059;-83
2023/03/09 12:30:58;;;;;;;;;5.25;4.75;;;;;18.52;100.00;99183.50;4158318;26;46005;-82
2023/03/09 12:34:24;;;;;;;;;4.75;3.00;;;;;18.61;100.00;99180.41;4938471;28;45288;-81
2023/03/09 12:37:28;;;;;;;;;5.50;4.25;;;;;18.63;100.00;99174.97;4957042;28;44854;-82
2023/03/09 12:40:54;;;;;;;;;4.00;2.50;;;;;18.70;100.00;99160.28;4933244;28;45622;-81
2023/03/09 12:44:06;;;;;;;;;5.50;4.50;;;;;18.61;100.00;99166.94;4947320;28;45419;-82
2023/03/09 12:54:12;;;;;;;;;4.75;3.00;;;;;18.31;100.00;99143.13;4838901;29;45502;-81
2023/03/09 12:56:38;;;;;;;;;5.75;3.00;;;;;18.12;100.00;99137.66;4840807;29;45488;-81
2023/03/09 12:59:21;;;;;;;;;4.50;4.50;;;;;18.26;100.00;99149.63;4840125;29;45356;-83
2023/03/09 13:02:04;;;;;;;;;8.67;6.67;;;;;18.21;100.00;99143.59;4838673;29;45402;-81
2023/03/09 13:08:36;;;;;;;;;5.25;3.75;;;;;18.18;100.00;99123.94;4831779;29;45652;-83
2023/03/09 13:11:26;;;;;;;;;7.00;6.00;;;;;18.38;100.00;99123.09;4826047;29;45725;-83
2023/03/09 13:14:22;;;;;;;;;3.25;3.00;;;;;18.28;100.00;99131.59;4839171;29;45459;-81
2023/03/09 13:17:03;;;;;;;;;5.50;4.00;;;;;17.92;100.00;99091.91;4824352;29;44863;-83
2023/03/09 13:19:51;;;;;;;;;4.50;3.00;;;;;18.30;100.00;99118.94;4873446;29;45169;-83
2023/03/09 13:23:22;;;;;;;;;;;;;;;;;;;;;
2023/03/09 13:28:50;;;;;;;;;5.25;3.75;;;;;18.05;100.00;99060.84;4946548;28;45418;-84
2023/03/09 13:32:35;;;;;;;;;4.00;4.00;;;;;18.19;100.00;99079.94;4914676;28;46875;-83
2023/03/09 13:45:17;;;;;;;;;3.33;3.00;;;;;17.48;100.00;99048.91;4844748;29;45347;-84